createdAt,value
2022-09-30T00:01:32.623Z,66.90
2022-09-30T00:03:34.410Z,66.80
2022-09-30T00:05:36.050Z,66.70
2022-09-30T00:07:37.636Z,66.50
2022-09-30T00:09:39.455Z,66.50
2022-09-30T00:11:41.752Z,66.70
2022-09-30T00:13:43.930Z,66.70
2022-09-30T00:15:46.565Z,66.80
2022-09-30T00:17:48.236Z,67.00
2022-09-30T00:19:49.862Z,67.00
2022-09-30T00:21:51.460Z,67.00
2022-09-30T00:23:53.068Z,66.90
2022-09-30T00:25:58.786Z,66.90
2022-09-30T00:28:00.403Z,66.80
2022-09-30T00:30:01.975Z,67.70
2022-09-30T00:32:03.648Z,66.90
2022-09-30T00:34:08.561Z,67.10
2022-09-30T00:36:10.837Z,67.20
2022-09-30T00:38:12.430Z,67.20
2022-09-30T00:40:14.041Z,67.10
2022-09-30T00:42:15.729Z,67.10
2022-09-30T00:44:36.231Z,67.10
2022-09-30T00:46:44.609Z,67.10
2022-09-30T00:48:50.817Z,67.00
2022-09-30T00:50:55.441Z,67.00
2022-09-30T00:53:17.378Z,67.00
2022-09-30T00:55:34.325Z,67.00
2022-09-30T00:57:36.950Z,66.90
2022-09-30T00:59:41.599Z,66.90
2022-09-30T01:01:43.605Z,67.00
2022-09-30T01:03:50.093Z,67.00
2022-09-30T01:05:52.041Z,66.90
2022-09-30T01:07:56.176Z,67.00
2022-09-30T01:09:58.077Z,67.00
2022-09-30T01:11:59.828Z,67.10
2022-09-30T01:14:13.278Z,67.00
2022-09-30T01:16:18.033Z,66.90
2022-09-30T01:18:24.971Z,66.80
2022-09-30T01:20:36.810Z,66.80
2022-09-30T01:22:47.612Z,66.90
2022-09-30T01:24:52.255Z,66.90
2022-09-30T01:26:57.008Z,66.90
2022-09-30T01:29:17.642Z,66.80
2022-09-30T01:31:24.753Z,67.60
2022-09-30T01:33:26.373Z,66.80
2022-09-30T01:35:27.989Z,66.80
2022-09-30T01:37:39.038Z,66.90
2022-09-30T01:39:46.800Z,66.90
2022-09-30T01:42:08.737Z,66.90
2022-09-30T01:44:14.570Z,66.90
2022-09-30T01:46:16.180Z,66.90
2022-09-30T01:48:31.216Z,67.10
2022-09-30T01:50:35.993Z,67.10
2022-09-30T01:52:39.942Z,67.10
2022-09-30T01:54:44.656Z,67.10
2022-09-30T01:56:49.639Z,67.00
2022-09-30T01:58:57.494Z,66.90
2022-09-30T02:01:01.062Z,67.00
2022-09-30T02:03:06.064Z,67.20
2022-09-30T02:05:14.045Z,67.20
2022-09-30T02:07:20.603Z,67.10
2022-09-30T02:09:25.071Z,67.00
2022-09-30T02:11:28.313Z,67.10
2022-09-30T02:13:32.858Z,67.30
2022-09-30T02:15:39.768Z,67.40
2022-09-30T02:17:46.708Z,67.40
2022-09-30T02:19:52.258Z,67.60
2022-09-30T02:22:00.032Z,67.70
2022-09-30T02:24:05.564Z,67.70
2022-09-30T02:26:10.269Z,67.60
2022-09-30T02:28:14.087Z,67.60
2022-09-30T02:30:15.853Z,67.50
2022-09-30T02:32:38.242Z,67.50
2022-09-30T02:34:42.683Z,67.50
2022-09-30T02:36:46.967Z,67.50
2022-09-30T02:38:52.556Z,67.50
2022-09-30T02:40:57.114Z,67.60
2022-09-30T02:42:58.805Z,67.60
2022-09-30T02:45:08.538Z,67.60
2022-09-30T02:47:23.442Z,67.60
2022-09-30T02:49:51.554Z,67.60
2022-09-30T02:52:05.184Z,67.60
2022-09-30T02:54:18.190Z,67.60
2022-09-30T02:56:38.645Z,67.60
2022-09-30T02:58:41.226Z,67.70
2022-09-30T03:00:42.967Z,67.70
2022-09-30T03:02:44.704Z,67.80
2022-09-30T03:04:46.751Z,67.90
2022-09-30T03:06:48.368Z,67.90
2022-09-30T03:08:51.104Z,67.80
2022-09-30T03:10:52.990Z,67.70
2022-09-30T03:12:54.859Z,67.70
2022-09-30T03:15:05.501Z,67.60
2022-09-30T03:17:10.186Z,67.60
2022-09-30T03:19:27.489Z,67.70
2022-09-30T03:21:44.195Z,67.70
2022-09-30T03:23:58.165Z,67.70
2022-09-30T03:25:59.729Z,68.40
2022-09-30T03:28:17.852Z,67.70
2022-09-30T03:30:24.281Z,67.80
2022-09-30T03:32:46.971Z,68.90
2022-09-30T03:34:48.561Z,68.10
2022-09-30T03:37:10.740Z,68.20
2022-09-30T03:39:15.174Z,68.10
2022-09-30T03:41:16.773Z,67.90
2022-09-30T03:43:25.661Z,67.80
2022-09-30T03:45:33.376Z,68.70
2022-09-30T03:47:38.309Z,67.70
2022-09-30T03:49:42.562Z,67.80
2022-09-30T03:51:44.265Z,67.80
2022-09-30T03:53:48.899Z,67.80
2022-09-30T03:55:52.187Z,67.70
2022-09-30T03:57:54.393Z,67.60
2022-09-30T03:59:56.645Z,67.60
2022-09-30T04:01:58.418Z,67.50
2022-09-30T04:04:00.052Z,67.60
2022-09-30T04:06:01.636Z,67.80
2022-09-30T04:08:03.225Z,67.70
2022-09-30T04:10:05.315Z,67.80
2022-09-30T04:12:07.269Z,67.70
2022-09-30T04:14:08.875Z,67.60
2022-09-30T04:16:10.562Z,67.60
2022-09-30T04:18:12.229Z,67.70
2022-09-30T04:20:16.689Z,67.70
2022-09-30T04:22:18.321Z,67.70
2022-09-30T04:24:20.691Z,67.80
2022-09-30T04:26:22.969Z,67.90
2022-09-30T04:28:24.568Z,67.90
2022-09-30T04:30:30.084Z,67.80
2022-09-30T04:32:34.341Z,67.70
2022-09-30T04:34:35.965Z,67.60
2022-09-30T04:36:37.784Z,67.70
2022-09-30T04:38:39.411Z,67.70
2022-09-30T04:40:41.020Z,67.70
2022-09-30T04:42:43.158Z,67.60
2022-09-30T04:44:44.728Z,67.60
2022-09-30T04:46:46.319Z,67.60
2022-09-30T04:48:47.917Z,67.60
2022-09-30T04:50:49.937Z,67.60
2022-09-30T04:52:51.527Z,67.60
2022-09-30T04:54:54.084Z,67.70
2022-09-30T04:56:55.674Z,67.70
2022-09-30T04:58:57.335Z,67.70
2022-09-30T05:01:02.211Z,67.80
2022-09-30T05:03:04.318Z,67.70
2022-09-30T05:05:06.179Z,67.60
2022-09-30T05:07:08.928Z,67.70
2022-09-30T05:09:10.622Z,67.70
2022-09-30T05:11:17.363Z,67.60
2022-09-30T05:13:18.944Z,67.50
2022-09-30T05:15:20.542Z,67.50
2022-09-30T05:17:22.207Z,67.40
2022-09-30T05:19:23.940Z,67.20
2022-09-30T05:21:25.760Z,67.10
2022-09-30T05:23:28.065Z,67.10
2022-09-30T05:25:29.678Z,67.00
2022-09-30T05:27:31.297Z,67.00
2022-09-30T05:29:33.137Z,66.90
2022-09-30T05:31:34.853Z,67.00
2022-09-30T05:33:36.562Z,67.00
2022-09-30T05:35:39.107Z,66.90
2022-09-30T05:37:40.732Z,66.80
2022-09-30T05:39:42.539Z,66.60
2022-09-30T05:41:44.161Z,66.50
2022-09-30T05:43:46.645Z,66.40
2022-09-30T05:45:52.155Z,66.40
2022-09-30T05:47:54.325Z,66.40
2022-09-30T05:49:56.341Z,66.20
2022-09-30T05:51:57.984Z,66.20
2022-09-30T05:53:59.622Z,66.30
2022-09-30T05:56:01.325Z,66.20
2022-09-30T05:58:02.958Z,66.20
2022-09-30T06:00:05.312Z,66.40
2022-09-30T06:02:14.061Z,66.40
2022-09-30T06:04:15.779Z,66.50
2022-09-30T06:06:18.996Z,66.40
2022-09-30T06:08:20.585Z,66.30
2022-09-30T06:10:24.006Z,66.30
2022-09-30T06:12:27.356Z,66.40
2022-09-30T06:14:28.962Z,66.50
2022-09-30T06:16:31.952Z,66.50
2022-09-30T06:18:33.732Z,66.50
2022-09-30T06:20:36.032Z,66.50
2022-09-30T06:22:37.645Z,67.40
2022-09-30T06:24:39.226Z,66.50
2022-09-30T06:26:43.045Z,66.70
2022-09-30T06:28:45.259Z,66.70
2022-09-30T06:30:47.013Z,66.60
2022-09-30T06:32:48.627Z,66.50
2022-09-30T06:34:50.219Z,66.70
2022-09-30T06:36:51.849Z,66.80
2022-09-30T06:38:54.236Z,67.00
2022-09-30T06:40:58.336Z,67.00
2022-09-30T06:43:00.194Z,67.00
2022-09-30T06:45:01.881Z,66.80
2022-09-30T06:47:04.086Z,66.90
2022-09-30T06:49:13.407Z,67.00
2022-09-30T06:51:26.146Z,66.90
2022-09-30T06:53:27.810Z,66.90
2022-09-30T06:55:30.187Z,67.00
2022-09-30T06:57:31.813Z,67.10
2022-09-30T06:59:33.424Z,67.20
2022-09-30T07:01:35.098Z,67.20
2022-09-30T07:03:36.980Z,68.10
2022-09-30T07:05:38.780Z,67.20
2022-09-30T07:07:40.382Z,67.20
2022-09-30T07:09:43.181Z,67.30
2022-09-30T07:11:44.908Z,67.60
2022-09-30T07:13:47.308Z,67.60
2022-09-30T07:15:51.112Z,67.60
2022-09-30T07:17:58.970Z,67.50
2022-09-30T07:20:00.733Z,67.50
2022-09-30T07:22:20.992Z,67.60
2022-09-30T07:24:22.725Z,67.70
2022-09-30T07:26:24.619Z,67.70
2022-09-30T07:28:31.257Z,67.80
2022-09-30T07:30:32.958Z,67.80
2022-09-30T07:32:34.781Z,67.80
2022-09-30T07:34:36.680Z,67.80
2022-09-30T07:36:39.057Z,67.80
2022-09-30T07:38:41.396Z,67.80
2022-09-30T07:40:50.828Z,68.00
2022-09-30T07:42:52.430Z,67.90
2022-09-30T07:44:54.092Z,67.80
2022-09-30T07:46:56.062Z,68.00
2022-09-30T07:49:01.366Z,68.00
2022-09-30T07:51:03.125Z,68.00
2022-09-30T07:53:04.723Z,68.00
2022-09-30T07:55:06.514Z,68.10
2022-09-30T07:57:10.806Z,68.20
2022-09-30T07:59:12.964Z,68.40
2022-09-30T08:01:16.076Z,68.30
2022-09-30T08:03:17.789Z,68.20
2022-09-30T08:05:19.464Z,68.20
2022-09-30T08:07:21.211Z,68.10
2022-09-30T08:09:23.989Z,68.10
2022-09-30T08:11:26.255Z,68.20
2022-09-30T08:13:27.944Z,68.20
2022-09-30T08:15:29.665Z,68.10
2022-09-30T08:17:31.357Z,68.20
2022-09-30T08:19:33.907Z,68.30
2022-09-30T08:21:35.648Z,68.30
2022-09-30T08:23:37.299Z,68.30
2022-09-30T08:25:38.945Z,68.30
2022-09-30T08:27:40.601Z,68.20
2022-09-30T08:29:54.535Z,68.10
2022-09-30T08:31:57.812Z,68.00
2022-09-30T08:33:59.860Z,67.90
2022-09-30T08:36:05.522Z,68.00
2022-09-30T08:38:07.171Z,68.10
2022-09-30T08:40:28.762Z,68.10
2022-09-30T08:42:50.559Z,67.90
2022-09-30T08:45:02.344Z,68.70
2022-09-30T08:47:03.993Z,67.80
2022-09-30T08:49:08.799Z,67.80
2022-09-30T08:51:13.487Z,67.60
2022-09-30T08:53:35.366Z,67.50
2022-09-30T08:55:41.421Z,67.60
2022-09-30T08:57:47.182Z,67.60
2022-09-30T08:59:54.942Z,67.60
2022-09-30T09:02:17.758Z,67.60
2022-09-30T09:04:19.553Z,67.60
2022-09-30T09:06:21.494Z,67.70
2022-09-30T09:08:32.223Z,67.60
2022-09-30T09:10:33.843Z,67.70
2022-09-30T09:12:42.499Z,67.70
2022-09-30T09:14:59.184Z,67.50
2022-09-30T09:17:05.864Z,67.50
2022-09-30T09:19:07.509Z,67.60
2022-09-30T09:21:18.148Z,67.60
2022-09-30T09:23:19.927Z,67.60
2022-09-30T09:25:25.514Z,67.60
2022-09-30T09:27:45.846Z,67.40
2022-09-30T09:29:53.320Z,67.40
2022-09-30T09:31:55.367Z,67.30
2022-09-30T09:34:01.028Z,67.10
2022-09-30T09:36:25.500Z,67.00
2022-09-30T09:38:35.773Z,67.10
2022-09-30T09:40:37.358Z,67.00
2022-09-30T09:42:57.912Z,67.00
2022-09-30T09:44:59.530Z,67.10
2022-09-30T09:47:05.462Z,66.80
2022-09-30T09:49:13.200Z,66.70
2022-09-30T09:51:17.593Z,66.60
2022-09-30T09:53:38.474Z,66.50
2022-09-30T09:55:40.142Z,66.50
2022-09-30T09:57:41.846Z,66.50
2022-09-30T10:00:22.373Z,66.50
2022-09-30T10:02:28.594Z,66.50
2022-09-30T10:04:31.564Z,66.50
2022-09-30T10:06:43.606Z,66.40
2022-09-30T10:08:55.480Z,66.40
2022-09-30T10:11:01.518Z,66.50
2022-09-30T10:13:03.481Z,66.20
2022-09-30T10:15:13.336Z,66.20
2022-09-30T10:17:19.890Z,66.10
2022-09-30T10:19:23.237Z,66.10
2022-09-30T10:21:26.072Z,66.20
2022-09-30T10:23:36.657Z,66.30
2022-09-30T10:25:38.386Z,66.20
2022-09-30T10:27:49.176Z,66.10
2022-09-30T10:29:50.938Z,66.10
2022-09-30T10:31:57.501Z,65.90
2022-09-30T10:34:10.395Z,65.70
2022-09-30T10:36:14.703Z,66.00
2022-09-30T10:38:16.375Z,65.70
2022-09-30T10:40:18.442Z,65.80
2022-09-30T10:42:26.595Z,65.70
2022-09-30T10:44:29.239Z,65.70
2022-09-30T10:46:36.814Z,65.70
2022-09-30T10:48:38.948Z,65.70
2022-09-30T10:50:40.569Z,65.40
2022-09-30T10:52:55.617Z,65.20
2022-09-30T10:54:58.647Z,65.20
2022-09-30T10:57:03.919Z,65.10
2022-09-30T10:59:16.575Z,64.90
2022-09-30T11:01:21.300Z,64.70
2022-09-30T11:03:30.924Z,64.60
2022-09-30T11:05:38.094Z,64.70
2022-09-30T11:07:42.692Z,64.90
2022-09-30T11:09:47.707Z,64.40
2022-09-30T11:11:52.967Z,64.30
2022-09-30T11:14:01.861Z,64.40
2022-09-30T11:16:09.214Z,64.30
2022-09-30T11:18:10.859Z,64.50
2022-09-30T11:20:25.075Z,64.20
2022-09-30T11:22:35.645Z,63.60
2022-09-30T11:24:40.280Z,63.10
2022-09-30T11:26:52.791Z,62.90
2022-09-30T11:29:06.958Z,62.30
2022-09-30T11:31:08.624Z,62.10
2022-09-30T11:33:13.270Z,62.10
2022-09-30T11:35:33.407Z,62.00
2022-09-30T11:37:53.488Z,61.90
2022-09-30T11:40:13.998Z,62.00
2022-09-30T11:42:25.058Z,61.80
2022-09-30T11:44:34.661Z,61.60
2022-09-30T11:46:39.291Z,61.60
2022-09-30T11:48:45.224Z,61.30
2022-09-30T11:50:52.979Z,61.20
2022-09-30T11:53:07.314Z,61.40
2022-09-30T11:55:14.366Z,61.20
2022-09-30T11:57:37.205Z,61.30
2022-09-30T11:59:41.904Z,61.50
2022-09-30T12:01:45.663Z,61.70
2022-09-30T12:04:07.633Z,61.50
2022-09-30T12:06:16.059Z,61.70
2022-09-30T12:08:19.676Z,61.50
2022-09-30T12:10:31.474Z,61.70
2022-09-30T12:12:33.188Z,61.90
2022-09-30T12:14:36.162Z,61.60
2022-09-30T12:16:38.649Z,61.30
2022-09-30T12:18:46.149Z,61.50
2022-09-30T12:20:50.190Z,61.50
2022-09-30T12:22:54.029Z,61.80
2022-09-30T12:24:55.927Z,61.80
2022-09-30T12:26:58.367Z,61.60
2022-09-30T12:29:30.556Z,61.70
2022-09-30T12:31:54.362Z,61.70
2022-09-30T12:34:07.449Z,61.60
2022-09-30T12:36:14.911Z,61.50
2022-09-30T12:38:29.679Z,61.50
2022-09-30T12:40:31.298Z,61.60
2022-09-30T12:42:35.941Z,61.70
2022-09-30T12:44:58.415Z,61.70
2022-09-30T12:47:03.052Z,61.50
2022-09-30T12:49:06.396Z,61.60
2022-09-30T12:51:08.346Z,61.60
2022-09-30T12:53:13.026Z,61.40
2022-09-30T12:55:20.509Z,61.50
2022-09-30T12:57:30.805Z,61.60
2022-09-30T12:59:37.208Z,61.70
2022-09-30T13:01:39.980Z,61.70
2022-09-30T13:03:52.828Z,61.50
2022-09-30T13:06:06.201Z,61.50
2022-09-30T13:08:07.793Z,61.70
2022-09-30T13:10:25.696Z,62.00
2022-09-30T13:12:29.388Z,62.10
2022-09-30T13:14:34.312Z,62.00
2022-09-30T13:16:54.966Z,62.10
2022-09-30T13:19:00.216Z,62.20
2022-09-30T13:21:05.028Z,62.50
2022-09-30T13:23:06.644Z,63.00
2022-09-30T13:25:15.604Z,63.80
2022-09-30T13:27:17.225Z,62.80
2022-09-30T13:29:19.679Z,62.60
2022-09-30T13:31:24.749Z,62.60
2022-09-30T13:33:42.372Z,63.20
2022-09-30T13:35:43.916Z,62.70
2022-09-30T13:37:45.654Z,62.30
2022-09-30T13:39:48.737Z,61.60
2022-09-30T13:41:53.472Z,61.60
2022-09-30T13:44:07.183Z,60.80
2022-09-30T13:46:24.237Z,60.50
2022-09-30T13:48:29.115Z,60.20
2022-09-30T13:50:32.780Z,60.00
2022-09-30T13:52:35.308Z,59.60
2022-09-30T13:54:40.184Z,59.90
2022-09-30T13:56:42.804Z,60.20
2022-09-30T13:58:58.785Z,60.90
2022-09-30T14:01:12.112Z,60.70
2022-09-30T14:03:22.032Z,61.30
2022-09-30T14:05:26.795Z,61.20
2022-09-30T14:07:28.645Z,60.60
2022-09-30T14:09:40.597Z,61.00
2022-09-30T14:11:45.296Z,60.40
2022-09-30T14:13:50.888Z,60.20
2022-09-30T14:16:10.676Z,59.30
2022-09-30T14:18:22.972Z,58.70
2022-09-30T14:20:43.815Z,59.10
2022-09-30T14:22:45.522Z,59.80
2022-09-30T14:24:49.824Z,59.90
2022-09-30T14:27:00.824Z,59.90
2022-09-30T14:29:11.446Z,59.80
2022-09-30T14:31:16.187Z,59.20
2022-09-30T14:33:17.917Z,58.40
2022-09-30T14:35:23.884Z,58.90
2022-09-30T14:37:32.537Z,58.70
2022-09-30T14:39:36.017Z,58.60
2022-09-30T14:41:41.034Z,58.70
2022-09-30T14:43:44.906Z,58.90
2022-09-30T14:45:51.069Z,57.40
2022-09-30T14:47:54.770Z,57.90
2022-09-30T14:49:57.163Z,56.80
2022-09-30T14:52:03.343Z,56.60
2022-09-30T14:54:06.284Z,56.40
2022-09-30T14:56:27.344Z,57.20
2022-09-30T14:58:30.562Z,57.10
2022-09-30T15:00:32.591Z,56.80
2022-09-30T15:02:34.255Z,57.10
2022-09-30T15:04:38.573Z,57.30
2022-09-30T15:06:43.315Z,57.60
2022-09-30T15:08:45.327Z,56.50
2022-09-30T15:10:51.803Z,56.10
2022-09-30T15:12:55.030Z,55.70
2022-09-30T15:14:58.106Z,56.00
2022-09-30T15:17:05.190Z,55.80
2022-09-30T15:19:15.421Z,56.20
2022-09-30T15:21:17.114Z,56.80
2022-09-30T15:23:21.262Z,56.80
2022-09-30T15:25:24.147Z,55.40
2022-09-30T15:27:30.273Z,56.50
2022-09-30T15:29:31.894Z,55.60
2022-09-30T15:31:34.354Z,56.50
2022-09-30T15:33:36.073Z,56.30
2022-09-30T15:35:38.036Z,55.50
2022-09-30T15:37:39.762Z,55.60
2022-09-30T15:40:04.373Z,55.10
2022-09-30T15:42:06.086Z,55.00
2022-09-30T15:44:15.461Z,55.40
2022-09-30T15:46:23.235Z,55.20
2022-09-30T15:48:27.711Z,55.30
2022-09-30T15:50:42.847Z,55.70
2022-09-30T15:52:44.959Z,55.70
2022-09-30T15:54:46.655Z,56.00
2022-09-30T15:56:48.262Z,55.80
2022-09-30T15:58:55.993Z,56.30
2022-09-30T16:01:19.524Z,56.10
2022-09-30T16:03:26.093Z,56.40
2022-09-30T16:05:27.790Z,56.30
2022-09-30T16:07:30.863Z,56.70
2022-09-30T16:09:41.554Z,56.70
2022-09-30T16:11:45.182Z,56.90
2022-09-30T16:13:47.884Z,56.80
2022-09-30T16:15:50.968Z,56.90
2022-09-30T16:17:52.757Z,57.00
2022-09-30T16:19:57.409Z,57.00
2022-09-30T16:21:59.518Z,57.10
2022-09-30T16:24:01.630Z,57.30
2022-09-30T16:26:15.490Z,57.30
2022-09-30T16:28:17.173Z,57.20
2022-09-30T16:30:19.435Z,57.40
2022-09-30T16:32:21.134Z,57.30
2022-09-30T16:34:24.230Z,57.60
2022-09-30T16:36:26.106Z,57.70
2022-09-30T16:38:27.720Z,58.30
2022-09-30T16:40:30.340Z,58.00
2022-09-30T16:42:32.944Z,58.00
2022-09-30T16:44:35.466Z,58.00
2022-09-30T16:46:37.951Z,58.20
2022-09-30T16:48:39.825Z,58.20
2022-09-30T16:50:48.358Z,58.40
2022-09-30T16:52:50.018Z,58.40
2022-09-30T16:54:51.613Z,58.40
2022-09-30T16:56:56.463Z,58.60
2022-09-30T16:59:00.897Z,58.70
2022-09-30T17:01:02.532Z,58.70
2022-09-30T17:03:05.460Z,58.90
2022-09-30T17:05:12.004Z,58.90
2022-09-30T17:07:14.436Z,58.90
2022-09-30T17:09:16.094Z,59.00
2022-09-30T17:11:19.217Z,59.10
2022-09-30T17:13:21.250Z,59.20
2022-09-30T17:15:22.897Z,59.30
2022-09-30T17:17:24.680Z,59.30
2022-09-30T17:19:29.987Z,59.30
2022-09-30T17:21:31.648Z,59.40
2022-09-30T17:23:33.356Z,59.40
2022-09-30T17:25:41.036Z,59.60
2022-09-30T17:27:42.993Z,59.60
2022-09-30T17:29:44.637Z,59.60
2022-09-30T17:31:46.326Z,59.70
2022-09-30T17:33:48.202Z,59.70
2022-09-30T17:35:59.542Z,59.80
2022-09-30T17:38:01.225Z,59.80
2022-09-30T17:40:23.733Z,59.90
2022-09-30T17:42:44.142Z,60.00
2022-09-30T17:44:45.838Z,60.10
2022-09-30T17:46:47.501Z,60.10
2022-09-30T17:48:50.175Z,60.10
2022-09-30T17:50:55.804Z,60.20
2022-09-30T17:52:57.511Z,60.40
2022-09-30T17:55:00.043Z,60.50
2022-09-30T17:57:01.820Z,60.40
2022-09-30T17:59:03.609Z,60.40
2022-09-30T18:01:07.683Z,60.50
2022-09-30T18:03:09.850Z,60.40
2022-09-30T18:05:11.900Z,60.50
2022-09-30T18:07:13.958Z,60.60
2022-09-30T18:09:15.588Z,60.50
2022-09-30T18:11:21.756Z,60.70
2022-09-30T18:13:24.016Z,60.80
2022-09-30T18:15:26.988Z,61.00
2022-09-30T18:17:28.712Z,60.90
2022-09-30T18:19:30.435Z,61.00
2022-09-30T18:21:32.928Z,60.90
2022-09-30T18:23:35.208Z,61.10
2022-09-30T18:25:38.239Z,61.10
2022-09-30T18:27:39.905Z,61.00
2022-09-30T18:29:41.728Z,61.10
2022-09-30T18:31:43.970Z,61.30
2022-09-30T18:33:51.506Z,61.20
2022-09-30T18:35:53.776Z,61.30
2022-09-30T18:37:55.723Z,61.40
2022-09-30T18:39:57.431Z,61.50
2022-09-30T18:42:00.424Z,61.40
2022-09-30T18:44:02.720Z,61.50
2022-09-30T18:46:05.376Z,61.50
2022-09-30T18:48:07.699Z,61.70
2022-09-30T18:50:13.692Z,61.90
2022-09-30T18:52:17.221Z,61.90
2022-09-30T18:54:20.775Z,61.90
2022-09-30T18:56:23.671Z,61.80
2022-09-30T18:58:25.650Z,61.90
2022-09-30T19:00:31.156Z,62.00
2022-09-30T19:02:33.902Z,61.90
2022-09-30T19:04:35.815Z,62.00
2022-09-30T19:06:39.237Z,62.10
2022-09-30T19:08:40.902Z,62.20
2022-09-30T19:10:42.767Z,62.20
2022-09-30T19:12:44.825Z,62.10
2022-09-30T19:14:46.504Z,62.20
2022-09-30T19:16:48.417Z,62.20
2022-09-30T19:18:50.973Z,62.20
2022-09-30T19:20:52.636Z,62.40
2022-09-30T19:22:54.301Z,62.40
2022-09-30T19:24:56.028Z,62.20
2022-09-30T19:26:57.675Z,62.30
2022-09-30T19:28:59.723Z,62.40
2022-09-30T19:31:07.331Z,62.40
2022-09-30T19:33:09.804Z,62.60
2022-09-30T19:35:14.714Z,62.70
2022-09-30T19:37:26.384Z,62.70
2022-09-30T19:39:40.802Z,62.60
2022-09-30T19:41:46.622Z,62.40
2022-09-30T19:43:49.130Z,62.50
2022-09-30T19:45:54.293Z,62.80
2022-09-30T19:47:57.448Z,63.00
2022-09-30T19:50:00.327Z,63.10
2022-09-30T19:52:12.596Z,63.20
2022-09-30T19:54:36.431Z,63.10
2022-09-30T19:56:41.691Z,62.90
2022-09-30T19:58:45.602Z,63.10
2022-09-30T20:00:53.131Z,63.00
2022-09-30T20:02:57.522Z,63.40
2022-09-30T20:05:00.470Z,63.60
2022-09-30T20:07:02.197Z,63.70
2022-09-30T20:09:06.291Z,63.60
2022-09-30T20:11:10.027Z,63.40
2022-09-30T20:13:11.771Z,63.40
2022-09-30T20:15:32.026Z,63.20
2022-09-30T20:17:33.681Z,63.60
2022-09-30T20:19:35.310Z,63.60
2022-09-30T20:21:41.860Z,63.50
2022-09-30T20:23:45.695Z,63.50
2022-09-30T20:25:47.660Z,63.50
2022-09-30T20:27:52.604Z,63.60
2022-09-30T20:29:54.544Z,63.40
2022-09-30T20:31:57.217Z,63.70
2022-09-30T20:33:59.510Z,63.70
2022-09-30T20:36:01.546Z,63.70
2022-09-30T20:38:03.384Z,63.60
2022-09-30T20:40:05.611Z,63.70
2022-09-30T20:42:07.225Z,63.90
2022-09-30T20:44:11.840Z,63.90
2022-09-30T20:46:13.571Z,64.00
2022-09-30T20:48:15.360Z,63.90
2022-09-30T20:50:34.719Z,64.00
2022-09-30T20:52:36.514Z,63.90
2022-09-30T20:54:38.278Z,63.90
2022-09-30T20:57:05.968Z,64.10
2022-09-30T20:59:02.223Z,63.90
2022-09-30T21:01:05.342Z,64.10
2022-09-30T21:03:08.394Z,64.10
2022-09-30T21:05:10.229Z,64.40
2022-09-30T21:07:11.992Z,64.30
2022-09-30T21:09:13.780Z,64.50
2022-09-30T21:11:15.431Z,64.50
2022-09-30T21:13:17.268Z,64.40
2022-09-30T21:15:19.105Z,64.50
2022-09-30T21:17:21.173Z,64.50
2022-09-30T21:19:22.798Z,64.50
2022-09-30T21:21:26.841Z,64.70
2022-09-30T21:23:29.223Z,64.50
2022-09-30T21:25:31.976Z,64.40
2022-09-30T21:27:33.687Z,64.70
2022-09-30T21:29:35.464Z,64.50
2022-09-30T21:31:38.002Z,64.60
2022-09-30T21:33:40.208Z,64.70
2022-09-30T21:35:41.857Z,64.60
2022-09-30T21:37:43.492Z,64.70
2022-09-30T21:39:48.052Z,64.70
2022-09-30T21:41:49.712Z,64.70
2022-09-30T21:43:51.371Z,64.80
2022-09-30T21:45:56.874Z,64.60
2022-09-30T21:48:02.206Z,64.80
2022-09-30T21:50:06.358Z,65.00
2022-09-30T21:52:09.084Z,64.90
2022-09-30T21:54:11.654Z,64.90
2022-09-30T21:56:13.301Z,65.10
2022-09-30T21:58:15.148Z,64.90
2022-09-30T22:00:17.227Z,65.20
2022-09-30T22:02:18.915Z,65.30
2022-09-30T22:04:20.655Z,64.90
2022-09-30T22:06:22.290Z,65.10
2022-09-30T22:08:24.281Z,65.10
2022-09-30T22:10:26.055Z,65.50
2022-09-30T22:12:27.999Z,65.10
2022-09-30T22:14:29.633Z,65.20
2022-09-30T22:16:34.753Z,65.30
2022-09-30T22:18:36.839Z,65.40
2022-09-30T22:20:38.460Z,65.50
2022-09-30T22:22:40.609Z,65.20
2022-09-30T22:24:42.349Z,65.40
2022-09-30T22:26:44.728Z,65.40
2022-09-30T22:28:46.890Z,65.60
2022-09-30T22:30:48.512Z,65.70
2022-09-30T22:33:10.093Z,65.50
2022-09-30T22:35:30.204Z,65.50
2022-09-30T22:38:06.985Z,65.60
2022-09-30T22:40:08.732Z,65.50
2022-09-30T22:42:10.338Z,65.50
2022-09-30T22:44:11.969Z,65.50
2022-09-30T22:46:13.618Z,66.50
2022-09-30T22:48:15.773Z,65.60
2022-09-30T22:50:19.633Z,65.70
2022-09-30T22:52:21.248Z,65.50
2022-09-30T22:54:24.043Z,65.40
2022-09-30T22:56:25.652Z,65.50
2022-09-30T22:58:28.110Z,65.50
2022-09-30T23:00:29.760Z,65.70
2022-09-30T23:02:31.493Z,65.60
2022-09-30T23:04:33.771Z,65.70
2022-09-30T23:06:36.452Z,65.60
2022-09-30T23:08:41.719Z,65.40
2022-09-30T23:10:49.658Z,65.50
2022-09-30T23:12:51.871Z,65.40
2022-09-30T23:14:53.789Z,65.50
2022-09-30T23:16:55.438Z,65.40
2022-09-30T23:18:57.294Z,65.60
2022-09-30T23:21:05.954Z,65.60
2022-09-30T23:23:07.647Z,65.50
2022-09-30T23:25:09.396Z,65.60
2022-09-30T23:27:10.985Z,65.60
2022-09-30T23:29:13.400Z,65.80
2022-09-30T23:31:16.260Z,65.60
2022-09-30T23:33:17.868Z,65.90
2022-09-30T23:35:19.473Z,65.70
2022-09-30T23:37:21.077Z,65.70
2022-09-30T23:39:22.651Z,65.70
2022-09-30T23:41:24.268Z,65.50
2022-09-30T23:43:26.688Z,65.50
2022-09-30T23:45:28.343Z,65.60
2022-09-30T23:47:29.990Z,65.80
2022-09-30T23:49:35.596Z,65.80
2022-09-30T23:51:37.306Z,65.70
2022-09-30T23:53:38.958Z,65.90
2022-09-30T23:55:40.824Z,66.00
2022-09-30T23:57:45.532Z,66.00
2022-09-30T23:59:47.137Z,66.00
